sensor_id;sensor_type;location;lat;lon;timestamp;P1;durP1;ratioP1;P2;durP2;ratioP2
19673;SDS011;9986;50.610;7.230;2023-02-15T00:02:12;33.90;;;17.93;;
19673;SDS011;9986;50.610;7.230;2023-02-15T00:04:49;29.73;;;18.37;;
19673;SDS011;9986;50.610;7.230;2023-02-15T00:07:30;30.80;;;17.70;;
19673;SDS011;9986;50.610;7.230;2023-02-15T00:12:44;29.63;;;17.13;;
19673;SDS011;9986;50.610;7.230;2023-02-15T00:15:21;30.70;;;17.57;;
19673;SDS011;9986;50.610;7.230;2023-02-15T00:17:59;30.60;;;17.57;;
19673;SDS011;9986;50.610;7.230;2023-02-15T00:25:49;36.13;;;20.50;;
19673;SDS011;9986;50.610;7.230;2023-02-15T00:28:27;31.27;;;18.50;;
19673;SDS011;9986;50.610;7.230;2023-02-15T00:31:06;30.07;;;17.10;;
19673;SDS011;9986;50.610;7.230;2023-02-15T00:36:14;26.37;;;15.80;;
19673;SDS011;9986;50.610;7.230;2023-02-15T00:38:52;28.80;;;17.60;;
19673;SDS011;9986;50.610;7.230;2023-02-15T00:43:59;30.17;;;18.07;;
19673;SDS011;9986;50.610;7.230;2023-02-15T00:49:12;30.33;;;18.37;;
19673;SDS011;9986;50.610;7.230;2023-02-15T00:54:20;30.33;;;18.80;;
19673;SDS011;9986;50.610;7.230;2023-02-15T00:59:34;31.43;;;17.90;;
19673;SDS011;9986;50.610;7.230;2023-02-15T01:02:12;30.53;;;19.07;;
19673;SDS011;9986;50.610;7.230;2023-02-15T01:04:50;31.30;;;17.47;;
19673;SDS011;9986;50.610;7.230;2023-02-15T01:07:27;31.30;;;16.97;;
19673;SDS011;9986;50.610;7.230;2023-02-15T01:10:06;33.20;;;18.57;;
19673;SDS011;9986;50.610;7.230;2023-02-15T01:12:44;32.33;;;18.10;;
19673;SDS011;9986;50.610;7.230;2023-02-15T01:15:22;33.70;;;17.83;;
19673;SDS011;9986;50.610;7.230;2023-02-15T01:20:37;33.70;;;19.23;;
19673;SDS011;9986;50.610;7.230;2023-02-15T01:23:21;31.37;;;16.57;;
19673;SDS011;9986;50.610;7.230;2023-02-15T01:31:19;34.93;;;18.70;;
19673;SDS011;9986;50.610;7.230;2023-02-15T01:33:57;35.60;;;18.80;;
19673;SDS011;9986;50.610;7.230;2023-02-15T01:36:35;32.77;;;18.93;;
19673;SDS011;9986;50.610;7.230;2023-02-15T01:39:13;29.63;;;18.20;;
19673;SDS011;9986;50.610;7.230;2023-02-15T01:47:32;31.00;;;17.50;;
19673;SDS011;9986;50.610;7.230;2023-02-15T01:55:22;35.30;;;18.83;;
19673;SDS011;9986;50.610;7.230;2023-02-15T01:58:03;33.07;;;17.43;;
19673;SDS011;9986;50.610;7.230;2023-02-15T02:03:11;32.33;;;18.27;;
19673;SDS011;9986;50.610;7.230;2023-02-15T02:05:49;32.97;;;18.23;;
19673;SDS011;9986;50.610;7.230;2023-02-15T02:08:27;31.70;;;17.73;;
19673;SDS011;9986;50.610;7.230;2023-02-15T02:13:52;32.33;;;19.03;;
19673;SDS011;9986;50.610;7.230;2023-02-15T02:16:36;30.40;;;17.73;;
19673;SDS011;9986;50.610;7.230;2023-02-15T02:22:48;30.33;;;16.53;;
19673;SDS011;9986;50.610;7.230;2023-02-15T02:25:39;31.27;;;16.37;;
19673;SDS011;9986;50.610;7.230;2023-02-15T02:31:24;32.43;;;17.40;;
19673;SDS011;9986;50.610;7.230;2023-02-15T02:34:08;29.10;;;18.13;;
19673;SDS011;9986;50.610;7.230;2023-02-15T02:36:49;30.27;;;18.60;;
19673;SDS011;9986;50.610;7.230;2023-02-15T02:39:29;32.43;;;17.70;;
19673;SDS011;9986;50.610;7.230;2023-02-15T02:42:09;33.10;;;17.97;;
19673;SDS011;9986;50.610;7.230;2023-02-15T02:49:59;29.03;;;17.07;;
19673;SDS011;9986;50.610;7.230;2023-02-15T02:52:40;32.67;;;18.00;;
19673;SDS011;9986;50.610;7.230;2023-02-15T02:57:52;32.50;;;17.37;;
19673;SDS011;9986;50.610;7.230;2023-02-15T03:00:32;34.70;;;18.00;;
19673;SDS011;9986;50.610;7.230;2023-02-15T03:03:11;31.40;;;18.10;;
19673;SDS011;9986;50.610;7.230;2023-02-15T03:05:50;28.17;;;15.93;;
19673;SDS011;9986;50.610;7.230;2023-02-15T03:08:31;32.03;;;17.50;;
19673;SDS011;9986;50.610;7.230;2023-02-15T03:11:09;35.30;;;18.67;;
19673;SDS011;9986;50.610;7.230;2023-02-15T03:13:48;38.53;;;18.63;;
19673;SDS011;9986;50.610;7.230;2023-02-15T03:18:58;32.03;;;18.10;;
19673;SDS011;9986;50.610;7.230;2023-02-15T03:21:38;27.50;;;16.57;;
19673;SDS011;9986;50.610;7.230;2023-02-15T03:24:17;27.77;;;15.80;;
19673;SDS011;9986;50.610;7.230;2023-02-15T03:26:56;29.87;;;17.57;;
19673;SDS011;9986;50.610;7.230;2023-02-15T03:29:40;29.63;;;17.37;;
19673;SDS011;9986;50.610;7.230;2023-02-15T03:37:25;25.50;;;14.97;;
19673;SDS011;9986;50.610;7.230;2023-02-15T03:40:11;25.57;;;14.93;;
19673;SDS011;9986;50.610;7.230;2023-02-15T03:42:51;22.87;;;14.23;;
19673;SDS011;9986;50.610;7.230;2023-02-15T03:45:32;26.00;;;15.13;;
19673;SDS011;9986;50.610;7.230;2023-02-15T03:48:11;23.17;;;14.80;;
19673;SDS011;9986;50.610;7.230;2023-02-15T03:50:52;27.37;;;14.23;;
19673;SDS011;9986;50.610;7.230;2023-02-15T03:53:31;28.17;;;16.30;;
19673;SDS011;9986;50.610;7.230;2023-02-15T03:56:10;26.80;;;15.97;;
19673;SDS011;9986;50.610;7.230;2023-02-15T03:58:47;25.37;;;15.07;;
19673;SDS011;9986;50.610;7.230;2023-02-15T04:01:26;27.47;;;15.77;;
19673;SDS011;9986;50.610;7.230;2023-02-15T04:07:11;24.60;;;15.20;;
19673;SDS011;9986;50.610;7.230;2023-02-15T04:12:30;30.87;;;16.87;;
19673;SDS011;9986;50.610;7.230;2023-02-15T04:15:11;27.97;;;14.93;;
19673;SDS011;9986;50.610;7.230;2023-02-15T04:17:51;26.37;;;15.57;;
19673;SDS011;9986;50.610;7.230;2023-02-15T04:20:29;29.03;;;16.53;;
19673;SDS011;9986;50.610;7.230;2023-02-15T04:23:06;29.47;;;15.73;;
19673;SDS011;9986;50.610;7.230;2023-02-15T04:25:44;31.03;;;15.77;;
19673;SDS011;9986;50.610;7.230;2023-02-15T04:28:22;26.83;;;15.93;;
19673;SDS011;9986;50.610;7.230;2023-02-15T04:31:00;29.97;;;17.07;;
19673;SDS011;9986;50.610;7.230;2023-02-15T04:33:39;27.60;;;16.37;;
19673;SDS011;9986;50.610;7.230;2023-02-15T04:36:16;28.40;;;16.77;;
19673;SDS011;9986;50.610;7.230;2023-02-15T04:38:56;29.70;;;16.47;;
19673;SDS011;9986;50.610;7.230;2023-02-15T04:41:34;27.20;;;15.97;;
19673;SDS011;9986;50.610;7.230;2023-02-15T04:44:14;30.07;;;16.73;;
19673;SDS011;9986;50.610;7.230;2023-02-15T04:49:21;25.50;;;15.60;;
19673;SDS011;9986;50.610;7.230;2023-02-15T04:51:59;23.00;;;14.47;;
19673;SDS011;9986;50.610;7.230;2023-02-15T04:57:08;27.10;;;14.67;;
19673;SDS011;9986;50.610;7.230;2023-02-15T04:59:46;24.70;;;13.83;;
19673;SDS011;9986;50.610;7.230;2023-02-15T05:02:25;23.77;;;14.73;;
19673;SDS011;9986;50.610;7.230;2023-02-15T05:05:03;24.33;;;13.90;;
19673;SDS011;9986;50.610;7.230;2023-02-15T05:07:41;24.57;;;15.27;;
19673;SDS011;9986;50.610;7.230;2023-02-15T05:12:48;21.63;;;13.33;;
19673;SDS011;9986;50.610;7.230;2023-02-15T05:18:05;26.43;;;16.03;;
19673;SDS011;9986;50.610;7.230;2023-02-15T05:20:43;25.00;;;14.40;;
19673;SDS011;9986;50.610;7.230;2023-02-15T05:23:24;24.10;;;14.23;;
19673;SDS011;9986;50.610;7.230;2023-02-15T05:26:02;24.77;;;13.60;;
19673;SDS011;9986;50.610;7.230;2023-02-15T05:28:40;24.40;;;15.20;;
19673;SDS011;9986;50.610;7.230;2023-02-15T05:31:18;21.53;;;14.43;;
19673;SDS011;9986;50.610;7.230;2023-02-15T05:33:56;25.53;;;14.63;;
19673;SDS011;9986;50.610;7.230;2023-02-15T05:36:34;22.70;;;13.77;;
19673;SDS011;9986;50.610;7.230;2023-02-15T05:39:20;23.10;;;13.50;;
19673;SDS011;9986;50.610;7.230;2023-02-15T05:41:59;23.33;;;14.00;;
19673;SDS011;9986;50.610;7.230;2023-02-15T05:44:36;19.90;;;13.30;;
19673;SDS011;9986;50.610;7.230;2023-02-15T05:47:20;22.90;;;13.83;;
19673;SDS011;9986;50.610;7.230;2023-02-15T05:49:58;24.20;;;13.83;;
19673;SDS011;9986;50.610;7.230;2023-02-15T05:52:38;24.17;;;13.80;;
19673;SDS011;9986;50.610;7.230;2023-02-15T05:55:16;21.13;;;14.07;;
19673;SDS011;9986;50.610;7.230;2023-02-15T05:57:54;21.10;;;13.77;;
19673;SDS011;9986;50.610;7.230;2023-02-15T06:00:32;22.47;;;13.47;;
19673;SDS011;9986;50.610;7.230;2023-02-15T06:03:10;21.47;;;13.13;;
19673;SDS011;9986;50.610;7.230;2023-02-15T06:08:17;21.13;;;12.93;;
19673;SDS011;9986;50.610;7.230;2023-02-15T06:10:55;22.40;;;14.03;;
19673;SDS011;9986;50.610;7.230;2023-02-15T06:13:33;18.43;;;12.83;;
19673;SDS011;9986;50.610;7.230;2023-02-15T06:16:13;18.77;;;12.53;;
19673;SDS011;9986;50.610;7.230;2023-02-15T06:18:51;23.40;;;14.30;;
19673;SDS011;9986;50.610;7.230;2023-02-15T06:23:58;20.57;;;12.70;;
19673;SDS011;9986;50.610;7.230;2023-02-15T06:31:41;19.40;;;12.33;;
19673;SDS011;9986;50.610;7.230;2023-02-15T06:34:20;18.97;;;11.20;;
19673;SDS011;9986;50.610;7.230;2023-02-15T06:36:58;19.37;;;12.37;;
19673;SDS011;9986;50.610;7.230;2023-02-15T06:39:36;20.10;;;13.13;;
19673;SDS011;9986;50.610;7.230;2023-02-15T06:42:16;20.43;;;12.80;;
19673;SDS011;9986;50.610;7.230;2023-02-15T06:44:54;18.03;;;12.57;;
19673;SDS011;9986;50.610;7.230;2023-02-15T06:47:32;20.63;;;13.07;;
19673;SDS011;9986;50.610;7.230;2023-02-15T06:52:48;20.50;;;13.40;;
19673;SDS011;9986;50.610;7.230;2023-02-15T06:55:26;19.53;;;12.83;;
19673;SDS011;9986;50.610;7.230;2023-02-15T06:58:05;17.50;;;11.53;;
19673;SDS011;9986;50.610;7.230;2023-02-15T07:00:43;18.83;;;11.83;;
19673;SDS011;9986;50.610;7.230;2023-02-15T07:03:22;17.07;;;11.43;;
19673;SDS011;9986;50.610;7.230;2023-02-15T07:11:15;22.47;;;13.90;;
19673;SDS011;9986;50.610;7.230;2023-02-15T07:16:41;18.73;;;11.93;;
19673;SDS011;9986;50.610;7.230;2023-02-15T07:19:18;18.83;;;11.17;;
19673;SDS011;9986;50.610;7.230;2023-02-15T07:21:56;20.13;;;12.47;;
19673;SDS011;9986;50.610;7.230;2023-02-15T07:24:34;15.77;;;11.53;;
19673;SDS011;9986;50.610;7.230;2023-02-15T07:27:12;19.27;;;11.67;;
19673;SDS011;9986;50.610;7.230;2023-02-15T07:29:49;18.90;;;11.13;;
19673;SDS011;9986;50.610;7.230;2023-02-15T07:32:28;19.87;;;12.80;;
19673;SDS011;9986;50.610;7.230;2023-02-15T07:35:06;17.50;;;11.63;;
19673;SDS011;9986;50.610;7.230;2023-02-15T07:37:44;19.00;;;12.37;;
19673;SDS011;9986;50.610;7.230;2023-02-15T07:40:15;16.87;;;11.33;;
19673;SDS011;9986;50.610;7.230;2023-02-15T07:42:53;20.20;;;12.27;;
19673;SDS011;9986;50.610;7.230;2023-02-15T07:45:35;20.57;;;12.53;;
19673;SDS011;9986;50.610;7.230;2023-02-15T07:48:14;21.00;;;12.67;;
19673;SDS011;9986;50.610;7.230;2023-02-15T07:50:51;50.33;;;30.07;;
19673;SDS011;9986;50.610;7.230;2023-02-15T07:53:35;22.07;;;11.90;;
19673;SDS011;9986;50.610;7.230;2023-02-15T07:56:14;21.07;;;12.13;;
19673;SDS011;9986;50.610;7.230;2023-02-15T07:58:52;17.37;;;11.07;;
19673;SDS011;9986;50.610;7.230;2023-02-15T08:04:06;18.07;;;12.23;;
19673;SDS011;9986;50.610;7.230;2023-02-15T08:06:45;19.80;;;12.07;;
19673;SDS011;9986;50.610;7.230;2023-02-15T08:09:22;21.33;;;12.90;;
19673;SDS011;9986;50.610;7.230;2023-02-15T08:12:00;17.97;;;12.07;;
19673;SDS011;9986;50.610;7.230;2023-02-15T08:17:08;20.47;;;12.70;;
19673;SDS011;9986;50.610;7.230;2023-02-15T08:22:21;19.60;;;12.20;;
19673;SDS011;9986;50.610;7.230;2023-02-15T08:24:59;18.07;;;12.13;;
19673;SDS011;9986;50.610;7.230;2023-02-15T08:27:37;22.13;;;12.60;;
19673;SDS011;9986;50.610;7.230;2023-02-15T08:30:15;21.47;;;13.43;;
19673;SDS011;9986;50.610;7.230;2023-02-15T08:32:53;21.23;;;12.10;;
19673;SDS011;9986;50.610;7.230;2023-02-15T08:35:36;23.13;;;12.97;;
19673;SDS011;9986;50.610;7.230;2023-02-15T08:43:21;22.83;;;13.60;;
19673;SDS011;9986;50.610;7.230;2023-02-15T08:45:58;21.67;;;12.83;;
19673;SDS011;9986;50.610;7.230;2023-02-15T08:48:40;20.87;;;13.43;;
19673;SDS011;9986;50.610;7.230;2023-02-15T08:51:18;33.00;;;20.10;;
19673;SDS011;9986;50.610;7.230;2023-02-15T08:53:57;21.30;;;13.03;;
19673;SDS011;9986;50.610;7.230;2023-02-15T08:59:12;26.07;;;13.77;;
19673;SDS011;9986;50.610;7.230;2023-02-15T09:01:50;24.57;;;12.30;;
19673;SDS011;9986;50.610;7.230;2023-02-15T09:07:05;20.67;;;12.43;;
19673;SDS011;9986;50.610;7.230;2023-02-15T09:09:42;22.63;;;13.63;;
19673;SDS011;9986;50.610;7.230;2023-02-15T09:12:20;24.17;;;13.67;;
19673;SDS011;9986;50.610;7.230;2023-02-15T09:14:58;17.73;;;11.03;;
19673;SDS011;9986;50.610;7.230;2023-02-15T09:17:36;21.40;;;12.20;;
19673;SDS011;9986;50.610;7.230;2023-02-15T09:20:14;20.73;;;13.07;;
19673;SDS011;9986;50.610;7.230;2023-02-15T09:22:52;19.80;;;12.43;;
19673;SDS011;9986;50.610;7.230;2023-02-15T09:25:29;21.23;;;13.60;;
19673;SDS011;9986;50.610;7.230;2023-02-15T09:28:08;22.83;;;13.20;;
19673;SDS011;9986;50.610;7.230;2023-02-15T09:30:46;20.97;;;12.73;;
19673;SDS011;9986;50.610;7.230;2023-02-15T09:33:24;25.10;;;13.60;;
19673;SDS011;9986;50.610;7.230;2023-02-15T09:36:01;19.40;;;11.77;;
19673;SDS011;9986;50.610;7.230;2023-02-15T09:41:27;21.67;;;14.70;;
19673;SDS011;9986;50.610;7.230;2023-02-15T09:46:53;18.90;;;12.67;;
19673;SDS011;9986;50.610;7.230;2023-02-15T09:49:35;17.40;;;11.47;;
19673;SDS011;9986;50.610;7.230;2023-02-15T09:52:23;21.93;;;13.47;;
19673;SDS011;9986;50.610;7.230;2023-02-15T09:57:55;19.90;;;12.83;;
19673;SDS011;9986;50.610;7.230;2023-02-15T10:00:36;20.40;;;13.17;;
19673;SDS011;9986;50.610;7.230;2023-02-15T10:03:21;18.87;;;12.30;;
19673;SDS011;9986;50.610;7.230;2023-02-15T10:08:45;23.07;;;14.00;;
19673;SDS011;9986;50.610;7.230;2023-02-15T10:11:31;19.00;;;13.17;;
19673;SDS011;9986;50.610;7.230;2023-02-15T10:16:52;19.97;;;13.63;;
19673;SDS011;9986;50.610;7.230;2023-02-15T10:19:33;22.13;;;13.63;;
19673;SDS011;9986;50.610;7.230;2023-02-15T10:22:15;20.97;;;14.13;;
19673;SDS011;9986;50.610;7.230;2023-02-15T10:25:00;22.13;;;13.40;;
19673;SDS011;9986;50.610;7.230;2023-02-15T10:27:48;21.37;;;14.27;;
19673;SDS011;9986;50.610;7.230;2023-02-15T10:30:33;21.63;;;14.03;;
19673;SDS011;9986;50.610;7.230;2023-02-15T10:33:14;22.70;;;14.60;;
19673;SDS011;9986;50.610;7.230;2023-02-15T10:35:57;22.83;;;14.00;;
19673;SDS011;9986;50.610;7.230;2023-02-15T10:38:32;23.33;;;14.03;;
19673;SDS011;9986;50.610;7.230;2023-02-15T10:43:52;19.47;;;13.83;;
19673;SDS011;9986;50.610;7.230;2023-02-15T10:52:19;20.33;;;13.63;;
19673;SDS011;9986;50.610;7.230;2023-02-15T10:55:05;18.87;;;12.90;;
19673;SDS011;9986;50.610;7.230;2023-02-15T11:00:22;22.00;;;13.53;;
19673;SDS011;9986;50.610;7.230;2023-02-15T11:05:42;20.63;;;14.37;;
19673;SDS011;9986;50.610;7.230;2023-02-15T11:08:22;18.50;;;13.27;;
19673;SDS011;9986;50.610;7.230;2023-02-15T11:11:05;18.33;;;13.60;;
19673;SDS011;9986;50.610;7.230;2023-02-15T11:13:45;23.30;;;14.63;;
19673;SDS011;9986;50.610;7.230;2023-02-15T11:18:56;20.77;;;13.50;;
19673;SDS011;9986;50.610;7.230;2023-02-15T11:21:38;20.43;;;13.10;;
19673;SDS011;9986;50.610;7.230;2023-02-15T11:24:18;17.60;;;13.53;;
19673;SDS011;9986;50.610;7.230;2023-02-15T11:29:33;20.63;;;12.43;;
19673;SDS011;9986;50.610;7.230;2023-02-15T11:32:13;18.73;;;13.40;;
19673;SDS011;9986;50.610;7.230;2023-02-15T11:34:55;20.47;;;11.93;;
19673;SDS011;9986;50.610;7.230;2023-02-15T11:37:37;19.07;;;12.77;;
19673;SDS011;9986;50.610;7.230;2023-02-15T11:40:19;18.23;;;13.00;;
19673;SDS011;9986;50.610;7.230;2023-02-15T11:45:29;20.83;;;14.20;;
19673;SDS011;9986;50.610;7.230;2023-02-15T11:50:51;16.23;;;11.50;;
19673;SDS011;9986;50.610;7.230;2023-02-15T11:53:31;17.23;;;11.77;;
19673;SDS011;9986;50.610;7.230;2023-02-15T11:56:13;15.53;;;11.47;;
19673;SDS011;9986;50.610;7.230;2023-02-15T12:01:30;15.10;;;10.97;;
19673;SDS011;9986;50.610;7.230;2023-02-15T12:06:51;15.33;;;10.83;;
19673;SDS011;9986;50.610;7.230;2023-02-15T12:09:30;14.87;;;11.07;;
19673;SDS011;9986;50.610;7.230;2023-02-15T12:12:24;14.63;;;11.37;;
19673;SDS011;9986;50.610;7.230;2023-02-15T12:15:03;20.47;;;10.97;;
19673;SDS011;9986;50.610;7.230;2023-02-15T12:20:25;14.90;;;10.97;;
19673;SDS011;9986;50.610;7.230;2023-02-15T12:25:41;14.13;;;10.63;;
19673;SDS011;9986;50.610;7.230;2023-02-15T12:30:57;13.47;;;10.40;;
19673;SDS011;9986;50.610;7.230;2023-02-15T12:33:35;14.97;;;9.97;;
19673;SDS011;9986;50.610;7.230;2023-02-15T12:36:15;14.97;;;10.70;;
19673;SDS011;9986;50.610;7.230;2023-02-15T12:39:05;14.67;;;10.67;;
19673;SDS011;9986;50.610;7.230;2023-02-15T12:42:03;11.90;;;9.80;;
19673;SDS011;9986;50.610;7.230;2023-02-15T12:44:36;13.70;;;10.07;;
19673;SDS011;9986;50.610;7.230;2023-02-15T12:52:43;12.90;;;9.27;;
19673;SDS011;9986;50.610;7.230;2023-02-15T12:55:24;12.00;;;9.50;;
19673;SDS011;9986;50.610;7.230;2023-02-15T12:58:06;16.63;;;9.73;;
19673;SDS011;9986;50.610;7.230;2023-02-15T13:00:44;12.50;;;10.20;;
19673;SDS011;9986;50.610;7.230;2023-02-15T13:03:23;13.77;;;9.87;;
19673;SDS011;9986;50.610;7.230;2023-02-15T13:06:00;13.73;;;10.03;;
19673;SDS011;9986;50.610;7.230;2023-02-15T13:11:19;13.53;;;9.70;;
19673;SDS011;9986;50.610;7.230;2023-02-15T13:16:29;12.93;;;9.93;;
19673;SDS011;9986;50.610;7.230;2023-02-15T13:21:40;11.40;;;8.70;;
19673;SDS011;9986;50.610;7.230;2023-02-15T13:26:52;14.23;;;9.37;;
19673;SDS011;9986;50.610;7.230;2023-02-15T13:29:33;11.77;;;9.60;;
19673;SDS011;9986;50.610;7.230;2023-02-15T13:34:51;12.07;;;10.00;;
19673;SDS011;9986;50.610;7.230;2023-02-15T13:43:11;13.33;;;9.83;;
19673;SDS011;9986;50.610;7.230;2023-02-15T13:48:25;12.20;;;9.87;;
19673;SDS011;9986;50.610;7.230;2023-02-15T13:53:42;12.97;;;9.17;;
19673;SDS011;9986;50.610;7.230;2023-02-15T13:56:25;12.67;;;10.40;;
19673;SDS011;9986;50.610;7.230;2023-02-15T14:01:42;14.53;;;9.37;;
19673;SDS011;9986;50.610;7.230;2023-02-15T14:07:04;13.87;;;10.83;;
19673;SDS011;9986;50.610;7.230;2023-02-15T14:18:12;12.67;;;9.17;;
19673;SDS011;9986;50.610;7.230;2023-02-15T14:23:36;13.30;;;9.60;;
19673;SDS011;9986;50.610;7.230;2023-02-15T14:26:20;13.47;;;9.07;;
19673;SDS011;9986;50.610;7.230;2023-02-15T14:29:03;12.33;;;10.07;;
19673;SDS011;9986;50.610;7.230;2023-02-15T14:31:43;14.03;;;8.93;;
19673;SDS011;9986;50.610;7.230;2023-02-15T14:34:23;14.50;;;10.43;;
19673;SDS011;9986;50.610;7.230;2023-02-15T14:39:41;13.83;;;9.77;;
19673;SDS011;9986;50.610;7.230;2023-02-15T14:42:23;12.87;;;10.20;;
19673;SDS011;9986;50.610;7.230;2023-02-15T14:47:44;13.13;;;9.37;;
19673;SDS011;9986;50.610;7.230;2023-02-15T14:50:39;11.47;;;9.17;;
19673;SDS011;9986;50.610;7.230;2023-02-15T14:56:27;12.57;;;8.93;;
19673;SDS011;9986;50.610;7.230;2023-02-15T14:59:18;11.70;;;9.13;;
19673;SDS011;9986;50.610;7.230;2023-02-15T15:01:58;10.97;;;8.57;;
19673;SDS011;9986;50.610;7.230;2023-02-15T15:07:20;10.97;;;8.77;;
19673;SDS011;9986;50.610;7.230;2023-02-15T15:10:03;12.97;;;8.40;;
19673;SDS011;9986;50.610;7.230;2023-02-15T15:12:42;10.60;;;8.37;;
19673;SDS011;9986;50.610;7.230;2023-02-15T15:15:33;11.47;;;8.87;;
19673;SDS011;9986;50.610;7.230;2023-02-15T15:18:11;12.80;;;9.23;;
19673;SDS011;9986;50.610;7.230;2023-02-15T15:23:44;12.17;;;8.70;;
19673;SDS011;9986;50.610;7.230;2023-02-15T15:26:23;11.43;;;9.00;;
19673;SDS011;9986;50.610;7.230;2023-02-15T15:29:07;11.77;;;8.73;;
19673;SDS011;9986;50.610;7.230;2023-02-15T15:31:47;12.03;;;7.90;;
19673;SDS011;9986;50.610;7.230;2023-02-15T15:40:51;9.67;;;7.47;;
19673;SDS011;9986;50.610;7.230;2023-02-15T15:43:58;13.30;;;9.20;;
19673;SDS011;9986;50.610;7.230;2023-02-15T15:46:47;11.67;;;8.47;;
19673;SDS011;9986;50.610;7.230;2023-02-15T15:49:31;10.27;;;7.90;;
19673;SDS011;9986;50.610;7.230;2023-02-15T15:52:14;11.37;;;7.77;;
19673;SDS011;9986;50.610;7.230;2023-02-15T15:54:52;12.80;;;8.77;;
19673;SDS011;9986;50.610;7.230;2023-02-15T15:57:32;13.70;;;8.60;;
19673;SDS011;9986;50.610;7.230;2023-02-15T16:00:22;12.53;;;8.30;;
19673;SDS011;9986;50.610;7.230;2023-02-15T16:03:03;11.87;;;8.07;;
19673;SDS011;9986;50.610;7.230;2023-02-15T16:05:41;11.63;;;7.60;;
19673;SDS011;9986;50.610;7.230;2023-02-15T16:08:26;17.60;;;8.77;;
19673;SDS011;9986;50.610;7.230;2023-02-15T16:11:09;12.77;;;8.87;;
19673;SDS011;9986;50.610;7.230;2023-02-15T16:13:48;11.57;;;8.10;;
19673;SDS011;9986;50.610;7.230;2023-02-15T16:16:27;10.07;;;7.70;;
19673;SDS011;9986;50.610;7.230;2023-02-15T16:19:05;15.30;;;7.87;;
19673;SDS011;9986;50.610;7.230;2023-02-15T16:24:28;14.17;;;8.00;;
19673;SDS011;9986;50.610;7.230;2023-02-15T16:30:13;16.23;;;9.43;;
19673;SDS011;9986;50.610;7.230;2023-02-15T16:35:41;10.90;;;7.93;;
19673;SDS011;9986;50.610;7.230;2023-02-15T16:38:45;11.77;;;8.50;;
19673;SDS011;9986;50.610;7.230;2023-02-15T16:41:31;12.43;;;8.47;;
19673;SDS011;9986;50.610;7.230;2023-02-15T16:44:17;11.20;;;8.13;;
19673;SDS011;9986;50.610;7.230;2023-02-15T16:46:55;13.33;;;8.43;;
19673;SDS011;9986;50.610;7.230;2023-02-15T16:52:10;12.10;;;8.90;;
19673;SDS011;9986;50.610;7.230;2023-02-15T16:54:52;13.20;;;8.83;;
19673;SDS011;9986;50.610;7.230;2023-02-15T17:00:16;11.83;;;8.87;;
19673;SDS011;9986;50.610;7.230;2023-02-15T17:02:59;12.03;;;8.07;;
19673;SDS011;9986;50.610;7.230;2023-02-15T17:05:41;13.90;;;8.00;;
19673;SDS011;9986;50.610;7.230;2023-02-15T17:08:23;12.43;;;8.47;;
19673;SDS011;9986;50.610;7.230;2023-02-15T17:11:15;10.87;;;8.30;;
19673;SDS011;9986;50.610;7.230;2023-02-15T17:14:13;11.90;;;9.13;;
19673;SDS011;9986;50.610;7.230;2023-02-15T17:16:59;15.00;;;9.30;;
19673;SDS011;9986;50.610;7.230;2023-02-15T17:19:43;12.60;;;8.37;;
19673;SDS011;9986;50.610;7.230;2023-02-15T17:22:18;14.30;;;9.40;;
19673;SDS011;9986;50.610;7.230;2023-02-15T17:25:04;12.13;;;8.50;;
19673;SDS011;9986;50.610;7.230;2023-02-15T17:27:43;13.23;;;8.80;;
19673;SDS011;9986;50.610;7.230;2023-02-15T17:30:25;13.27;;;9.50;;
19673;SDS011;9986;50.610;7.230;2023-02-15T17:38:18;11.70;;;8.83;;
19673;SDS011;9986;50.610;7.230;2023-02-15T17:40:59;14.57;;;9.90;;
19673;SDS011;9986;50.610;7.230;2023-02-15T17:43:37;13.10;;;9.17;;
19673;SDS011;9986;50.610;7.230;2023-02-15T17:46:15;15.23;;;9.33;;
19673;SDS011;9986;50.610;7.230;2023-02-15T17:49:02;15.07;;;10.30;;
19673;SDS011;9986;50.610;7.230;2023-02-15T17:51:40;19.03;;;10.47;;
19673;SDS011;9986;50.610;7.230;2023-02-15T17:54:18;16.63;;;11.23;;
19673;SDS011;9986;50.610;7.230;2023-02-15T17:56:57;12.33;;;9.30;;
19673;SDS011;9986;50.610;7.230;2023-02-15T17:59:34;13.43;;;10.17;;
19673;SDS011;9986;50.610;7.230;2023-02-15T18:05:01;13.93;;;9.33;;
19673;SDS011;9986;50.610;7.230;2023-02-15T18:07:39;12.30;;;9.30;;
19673;SDS011;9986;50.610;7.230;2023-02-15T18:12:53;14.20;;;9.40;;
19673;SDS011;9986;50.610;7.230;2023-02-15T18:15:31;12.93;;;9.20;;
19673;SDS011;9986;50.610;7.230;2023-02-15T18:18:02;13.73;;;9.70;;
19673;SDS011;9986;50.610;7.230;2023-02-15T18:20:40;16.17;;;11.53;;
19673;SDS011;9986;50.610;7.230;2023-02-15T18:23:18;15.30;;;10.43;;
19673;SDS011;9986;50.610;7.230;2023-02-15T18:25:56;12.67;;;9.57;;
19673;SDS011;9986;50.610;7.230;2023-02-15T18:31:13;17.63;;;11.83;;
19673;SDS011;9986;50.610;7.230;2023-02-15T18:38:59;14.43;;;10.73;;
19673;SDS011;9986;50.610;7.230;2023-02-15T18:41:38;16.17;;;11.43;;
19673;SDS011;9986;50.610;7.230;2023-02-15T18:44:18;14.33;;;10.87;;
19673;SDS011;9986;50.610;7.230;2023-02-15T18:49:25;13.90;;;9.67;;
19673;SDS011;9986;50.610;7.230;2023-02-15T18:52:03;11.67;;;10.03;;
19673;SDS011;9986;50.610;7.230;2023-02-15T18:54:41;15.67;;;10.77;;
19673;SDS011;9986;50.610;7.230;2023-02-15T18:57:19;15.50;;;10.60;;
19673;SDS011;9986;50.610;7.230;2023-02-15T19:02:27;16.07;;;10.77;;
19673;SDS011;9986;50.610;7.230;2023-02-15T19:07:41;16.73;;;11.00;;
19673;SDS011;9986;50.610;7.230;2023-02-15T19:10:25;15.17;;;10.83;;
19673;SDS011;9986;50.610;7.230;2023-02-15T19:13:04;15.33;;;10.83;;
19673;SDS011;9986;50.610;7.230;2023-02-15T19:15:45;17.90;;;11.23;;
19673;SDS011;9986;50.610;7.230;2023-02-15T19:18:16;14.83;;;11.07;;
19673;SDS011;9986;50.610;7.230;2023-02-15T19:20:54;15.83;;;11.03;;
19673;SDS011;9986;50.610;7.230;2023-02-15T19:26:01;18.00;;;12.43;;
19673;SDS011;9986;50.610;7.230;2023-02-15T19:28:39;15.03;;;11.23;;
19673;SDS011;9986;50.610;7.230;2023-02-15T19:31:17;14.47;;;11.87;;
19673;SDS011;9986;50.610;7.230;2023-02-15T19:36:25;17.07;;;12.53;;
19673;SDS011;9986;50.610;7.230;2023-02-15T19:39:03;20.43;;;13.00;;
19673;SDS011;9986;50.610;7.230;2023-02-15T19:41:42;17.27;;;12.17;;
19673;SDS011;9986;50.610;7.230;2023-02-15T19:44:20;16.07;;;12.60;;
19673;SDS011;9986;50.610;7.230;2023-02-15T19:49:38;17.80;;;12.73;;
19673;SDS011;9986;50.610;7.230;2023-02-15T19:52:19;18.80;;;13.13;;
19673;SDS011;9986;50.610;7.230;2023-02-15T19:54:57;17.97;;;12.80;;
19673;SDS011;9986;50.610;7.230;2023-02-15T19:57:35;18.57;;;13.17;;
19673;SDS011;9986;50.610;7.230;2023-02-15T20:00:16;21.30;;;12.27;;
19673;SDS011;9986;50.610;7.230;2023-02-15T20:02:55;18.07;;;11.77;;
19673;SDS011;9986;50.610;7.230;2023-02-15T20:05:35;17.40;;;12.00;;
19673;SDS011;9986;50.610;7.230;2023-02-15T20:10:43;15.20;;;12.27;;
19673;SDS011;9986;50.610;7.230;2023-02-15T20:13:20;18.13;;;12.43;;
19673;SDS011;9986;50.610;7.230;2023-02-15T20:15:58;19.03;;;13.30;;
19673;SDS011;9986;50.610;7.230;2023-02-15T20:18:36;17.53;;;12.60;;
19673;SDS011;9986;50.610;7.230;2023-02-15T20:21:14;18.97;;;12.67;;
19673;SDS011;9986;50.610;7.230;2023-02-15T20:23:52;19.17;;;12.80;;
19673;SDS011;9986;50.610;7.230;2023-02-15T20:29:00;22.80;;;13.10;;
19673;SDS011;9986;50.610;7.230;2023-02-15T20:34:07;15.47;;;12.17;;
19673;SDS011;9986;50.610;7.230;2023-02-15T20:36:45;18.93;;;12.57;;
19673;SDS011;9986;50.610;7.230;2023-02-15T20:39:23;19.43;;;12.40;;
19673;SDS011;9986;50.610;7.230;2023-02-15T20:44:37;21.00;;;13.23;;
19673;SDS011;9986;50.610;7.230;2023-02-15T20:47:17;16.57;;;12.50;;
19673;SDS011;9986;50.610;7.230;2023-02-15T20:52:24;21.17;;;12.37;;